createdAt,value
2022-09-15T00:10:01.354Z,17.22
2022-09-15T00:20:06.144Z,17.14
2022-09-15T00:30:08.459Z,17.23
2022-09-15T00:40:10.603Z,17.18
2022-09-15T00:50:16.387Z,17.14
2022-09-15T01:00:21.015Z,17.24
2022-09-15T01:10:27.119Z,17.09
2022-09-15T01:20:53.359Z,17.22
2022-09-15T01:31:10.981Z,17.05
2022-09-15T01:41:27.237Z,17.11
2022-09-15T01:51:31.779Z,17.02
2022-09-15T02:02:10.915Z,17.01
2022-09-15T02:12:20.213Z,16.89
2022-09-15T02:22:29.564Z,16.69
2022-09-15T02:32:34.122Z,16.91
2022-09-15T02:42:36.348Z,16.53
2022-09-15T02:52:41.571Z,16.56
2022-09-15T03:02:46.600Z,16.42
2022-09-15T03:12:51.605Z,16.86
2022-09-15T03:22:56.152Z,16.52
2022-09-15T03:32:57.865Z,16.70
2022-09-15T03:42:59.859Z,16.86
2022-09-15T03:53:01.988Z,16.72
2022-09-15T04:03:04.142Z,16.68
2022-09-15T04:13:05.888Z,16.72
2022-09-15T04:23:07.601Z,16.69
2022-09-15T04:33:09.302Z,16.57
2022-09-15T04:43:10.954Z,16.41
2022-09-15T04:53:12.802Z,16.38
2022-09-15T05:03:14.512Z,16.28
2022-09-15T05:13:16.324Z,16.14
2022-09-15T05:23:18.424Z,16.19
2022-09-15T05:33:21.822Z,16.22
2022-09-15T05:43:23.596Z,16.36
2022-09-15T05:53:26.064Z,16.34
2022-09-15T06:03:30.971Z,16.40
2022-09-15T06:13:33.207Z,17.01
2022-09-15T06:23:35.372Z,17.00
2022-09-15T06:33:37.263Z,17.35
2022-09-15T06:43:39.618Z,17.09
2022-09-15T06:53:41.424Z,17.56
2022-09-15T07:03:44.164Z,17.17
2022-09-15T07:13:48.449Z,17.77
2022-09-15T07:23:50.443Z,18.25
2022-09-15T07:33:52.104Z,18.08
2022-09-15T07:43:56.422Z,18.23
2022-09-15T07:53:58.564Z,18.31
2022-09-15T08:04:00.431Z,18.74
2022-09-15T08:14:03.305Z,18.68
2022-09-15T08:24:05.113Z,18.69
2022-09-15T08:34:07.127Z,18.40
2022-09-15T08:44:42.957Z,18.15
2022-09-15T08:54:44.906Z,18.15
2022-09-15T09:04:52.523Z,18.21
2022-09-15T09:14:54.286Z,18.19
2022-09-15T09:24:59.363Z,18.24
2022-09-15T09:35:29.785Z,18.36
2022-09-15T09:45:31.497Z,18.39
2022-09-15T09:55:33.264Z,18.43
2022-09-15T10:05:35.267Z,18.60
2022-09-15T10:15:40.592Z,18.63
2022-09-15T10:25:58.680Z,18.79
2022-09-15T10:36:05.872Z,18.96
2022-09-15T10:46:13.867Z,18.98
2022-09-15T10:56:21.975Z,19.18
2022-09-15T11:06:32.547Z,19.31
2022-09-15T11:16:53.295Z,19.87
2022-09-15T11:27:17.109Z,20.00
2022-09-15T11:37:24.105Z,19.70
2022-09-15T11:47:25.903Z,20.12
2022-09-15T11:57:36.572Z,20.14
2022-09-15T12:07:50.170Z,20.07
2022-09-15T12:18:37.054Z,20.09
2022-09-15T12:29:04.775Z,20.23
2022-09-15T12:39:24.293Z,19.64
2022-09-15T12:49:36.636Z,20.00
2022-09-15T12:59:38.386Z,19.40
2022-09-15T13:09:57.252Z,19.93
2022-09-15T13:20:07.321Z,20.28
2022-09-15T13:30:24.190Z,20.04
2022-09-15T13:40:44.402Z,19.86
2022-09-15T13:51:13.174Z,19.58
2022-09-15T14:01:17.198Z,19.71
2022-09-15T14:11:26.251Z,19.86
2022-09-15T14:21:33.600Z,19.82
2022-09-15T14:31:41.198Z,19.74
2022-09-15T14:41:42.941Z,19.61
2022-09-15T14:51:46.787Z,19.57
2022-09-15T15:02:19.737Z,19.28
2022-09-15T15:12:29.187Z,19.04
2022-09-15T15:22:30.965Z,18.81
2022-09-15T15:32:34.258Z,18.41
2022-09-15T15:42:36.008Z,18.36
2022-09-15T15:52:37.910Z,18.55
2022-09-15T16:02:39.796Z,18.28
2022-09-15T16:12:41.452Z,18.06
2022-09-15T16:22:43.955Z,18.09
2022-09-15T16:32:45.647Z,18.00
2022-09-15T16:42:48.372Z,17.94
2022-09-15T16:52:50.603Z,17.72
2022-09-15T17:02:52.337Z,17.76
2022-09-15T17:12:54.459Z,17.75
2022-09-15T17:22:57.380Z,17.57
2022-09-15T17:33:06.644Z,17.66
2022-09-15T17:43:16.634Z,17.78
2022-09-15T17:53:28.449Z,17.91
2022-09-15T18:03:34.824Z,17.56
2022-09-15T18:13:37.896Z,17.35
2022-09-15T18:23:42.351Z,17.47
2022-09-15T18:33:45.058Z,17.44
2022-09-15T18:43:49.388Z,17.57
2022-09-15T18:53:54.297Z,17.31
2022-09-15T19:03:57.724Z,17.45
2022-09-15T19:14:00.323Z,17.52
2022-09-15T19:24:02.290Z,17.42
2022-09-15T19:34:04.749Z,17.33
2022-09-15T19:44:09.513Z,17.31
2022-09-15T19:54:12.557Z,17.19
2022-09-15T20:04:15.173Z,17.22
2022-09-15T20:14:16.871Z,16.97
2022-09-15T20:24:20.248Z,17.17
2022-09-15T20:34:22.669Z,16.87
2022-09-15T20:44:24.778Z,16.96
2022-09-15T20:54:26.506Z,16.65
2022-09-15T21:04:28.235Z,16.73
2022-09-15T21:14:30.650Z,16.60
2022-09-15T21:24:32.460Z,16.80
2022-09-15T21:34:34.356Z,16.51
2022-09-15T21:44:36.346Z,16.56
2022-09-15T21:54:38.830Z,16.70
2022-09-15T22:04:41.081Z,16.49
2022-09-15T22:14:42.793Z,16.53
2022-09-15T22:24:48.279Z,16.62
2022-09-15T22:34:50.297Z,16.51
2022-09-15T22:44:52.250Z,16.35
2022-09-15T22:54:53.945Z,16.60
2022-09-15T23:04:55.696Z,16.55
2022-09-15T23:14:57.593Z,16.59
2022-09-15T23:24:59.342Z,16.45
2022-09-15T23:35:00.934Z,16.46
2022-09-15T23:45:02.737Z,16.35
2022-09-15T23:55:04.898Z,16.45
